createdAt,value
2018-09-09T00:02:27.814Z,59.30
2018-09-09T00:04:55.975Z,59.40
2018-09-09T00:07:24.152Z,59.40
2018-09-09T00:09:52.334Z,59.50
2018-09-09T00:12:20.817Z,59.50
2018-09-09T00:14:49.322Z,59.60
2018-09-09T00:17:17.477Z,59.70
2018-09-09T00:19:45.669Z,59.60
2018-09-09T00:22:13.830Z,60.10
2018-09-09T00:24:42.003Z,59.70
2018-09-09T00:27:10.178Z,59.80
2018-09-09T00:29:38.438Z,59.70
2018-09-09T00:32:06.601Z,59.80
2018-09-09T00:34:34.769Z,59.80
2018-09-09T00:37:02.957Z,59.80
2018-09-09T00:39:31.113Z,59.80
2018-09-09T00:41:59.270Z,59.80
2018-09-09T00:44:27.452Z,60.00
2018-09-09T00:46:55.614Z,60.00
2018-09-09T00:49:29.347Z,60.00
2018-09-09T00:52:03.061Z,60.00
2018-09-09T00:54:31.230Z,60.00
2018-09-09T00:56:59.398Z,59.90
2018-09-09T00:59:27.569Z,60.00
2018-09-09T01:01:55.745Z,60.10
2018-09-09T01:04:23.908Z,61.00
2018-09-09T01:06:52.063Z,60.20
2018-09-09T01:09:20.227Z,60.10
2018-09-09T01:11:48.416Z,60.00
2018-09-09T01:14:16.607Z,60.10
2018-09-09T01:16:44.797Z,60.10
2018-09-09T01:19:12.980Z,60.10
2018-09-09T01:21:41.268Z,61.00
2018-09-09T01:24:09.438Z,60.30
2018-09-09T01:26:37.594Z,60.10
2018-09-09T01:29:06.038Z,60.20
2018-09-09T01:31:34.184Z,60.20
2018-09-09T01:34:02.346Z,60.20
2018-09-09T01:36:30.526Z,60.20
2018-09-09T01:38:58.693Z,60.20
2018-09-09T01:41:26.860Z,60.20
2018-09-09T01:43:54.994Z,60.40
2018-09-09T01:46:23.217Z,60.40
2018-09-09T01:48:51.383Z,60.40
2018-09-09T01:51:19.581Z,60.40
2018-09-09T01:53:47.786Z,60.20
2018-09-09T01:56:15.987Z,60.40
2018-09-09T01:58:44.150Z,60.50
2018-09-09T02:01:12.338Z,60.60
2018-09-09T02:03:40.538Z,60.70
2018-09-09T02:06:08.709Z,61.40
2018-09-09T02:08:36.907Z,60.90
2018-09-09T02:11:05.079Z,60.80
2018-09-09T02:13:33.254Z,60.80
2018-09-09T02:16:01.675Z,61.00
2018-09-09T02:18:29.838Z,61.10
2018-09-09T02:20:58.005Z,61.10
2018-09-09T02:23:26.175Z,61.10
2018-09-09T02:25:54.584Z,61.10
2018-09-09T02:28:22.604Z,61.20
2018-09-09T02:30:50.776Z,61.00
2018-09-09T02:33:18.942Z,61.20
2018-09-09T02:35:47.107Z,61.10
2018-09-09T02:38:15.376Z,61.20
2018-09-09T02:40:43.560Z,61.20
2018-09-09T02:43:11.748Z,61.10
2018-09-09T02:45:39.926Z,61.00
2018-09-09T02:48:08.122Z,61.00
2018-09-09T02:50:36.294Z,61.10
2018-09-09T02:53:04.460Z,60.80
2018-09-09T02:55:32.640Z,60.80
2018-09-09T02:58:00.828Z,60.80
2018-09-09T03:00:28.988Z,60.90
2018-09-09T03:02:57.154Z,61.00
2018-09-09T03:05:25.306Z,61.10
2018-09-09T03:07:53.685Z,61.20
2018-09-09T03:10:21.842Z,61.10
2018-09-09T03:12:50.010Z,61.00
2018-09-09T03:15:18.194Z,61.00
2018-09-09T03:17:46.378Z,61.00
2018-09-09T03:20:14.618Z,60.90
2018-09-09T03:22:42.783Z,60.80
2018-09-09T03:25:10.943Z,61.00
2018-09-09T03:27:39.107Z,61.30
2018-09-09T03:30:07.511Z,61.00
2018-09-09T03:32:35.731Z,61.00
2018-09-09T03:35:04.034Z,61.00
2018-09-09T03:37:32.183Z,61.00
2018-09-09T03:40:00.375Z,61.00
2018-09-09T03:42:28.554Z,61.00
2018-09-09T03:44:56.799Z,61.00
2018-09-09T03:47:25.002Z,61.20
2018-09-09T03:49:53.206Z,61.20
2018-09-09T03:52:21.597Z,61.30
2018-09-09T03:54:49.806Z,61.40
2018-09-09T03:57:18.000Z,61.50
2018-09-09T03:59:46.112Z,61.40
2018-09-09T04:02:14.262Z,61.30
2018-09-09T04:04:42.430Z,61.40
2018-09-09T04:07:10.742Z,61.20
2018-09-09T04:09:38.907Z,61.10
2018-09-09T04:12:07.060Z,61.50
2018-09-09T04:14:35.223Z,61.10
2018-09-09T04:17:03.401Z,61.10
2018-09-09T04:19:31.547Z,61.20
2018-09-09T04:21:59.705Z,61.20
2018-09-09T04:24:27.882Z,61.20
2018-09-09T04:26:56.043Z,61.20
2018-09-09T04:29:24.187Z,61.20
2018-09-09T04:31:52.684Z,61.10
2018-09-09T04:34:20.843Z,61.20
2018-09-09T04:36:48.993Z,61.30
2018-09-09T04:39:17.140Z,61.40
2018-09-09T04:41:45.308Z,61.40
2018-09-09T04:44:14.068Z,61.50
2018-09-09T04:46:42.217Z,61.60
2018-09-09T04:49:10.597Z,61.80
2018-09-09T04:51:38.883Z,61.90
2018-09-09T04:54:07.091Z,61.80
2018-09-09T04:56:35.250Z,61.90
2018-09-09T04:59:03.495Z,61.90
2018-09-09T05:01:31.666Z,61.90
2018-09-09T05:03:59.899Z,61.90
2018-09-09T05:06:28.041Z,61.90
2018-09-09T05:08:56.193Z,61.90
2018-09-09T05:11:24.355Z,61.90
2018-09-09T05:13:52.583Z,62.00
2018-09-09T05:16:20.733Z,61.90
2018-09-09T05:18:48.892Z,62.00
2018-09-09T05:21:17.030Z,61.90
2018-09-09T05:23:45.248Z,61.90
2018-09-09T05:26:13.376Z,62.00
2018-09-09T05:28:41.538Z,62.40
2018-09-09T05:31:09.678Z,61.80
2018-09-09T05:33:37.834Z,61.90
2018-09-09T05:36:06.010Z,61.80
2018-09-09T05:38:34.163Z,61.80
2018-09-09T05:41:02.315Z,61.80
2018-09-09T05:43:30.459Z,61.90
2018-09-09T05:45:58.603Z,62.10
2018-09-09T05:48:26.776Z,62.20
2018-09-09T05:50:54.923Z,62.20
2018-09-09T05:53:23.066Z,62.10
2018-09-09T05:55:51.256Z,62.10
2018-09-09T05:58:19.409Z,62.10
2018-09-09T06:00:47.543Z,62.20
2018-09-09T06:03:15.710Z,62.20
2018-09-09T06:05:43.858Z,62.60
2018-09-09T06:08:12.024Z,62.20
2018-09-09T06:10:40.182Z,62.10
2018-09-09T06:13:08.338Z,62.10
2018-09-09T06:15:36.498Z,62.10
2018-09-09T06:18:04.922Z,62.10
2018-09-09T06:20:33.084Z,62.10
2018-09-09T06:23:01.255Z,62.10
2018-09-09T06:25:29.413Z,62.20
2018-09-09T06:27:57.599Z,62.20
2018-09-09T06:30:25.777Z,62.20
2018-09-09T06:32:53.918Z,62.30
2018-09-09T06:35:22.105Z,62.30
2018-09-09T06:37:50.243Z,62.40
2018-09-09T06:40:18.406Z,62.40
2018-09-09T06:42:46.598Z,62.40
2018-09-09T06:45:14.766Z,62.20
2018-09-09T06:47:42.913Z,62.20
2018-09-09T06:50:11.413Z,62.20
2018-09-09T06:52:39.581Z,62.20
2018-09-09T06:55:07.855Z,62.20
2018-09-09T06:57:36.042Z,62.30
2018-09-09T07:00:04.282Z,62.20
2018-09-09T07:02:32.474Z,62.30
2018-09-09T07:05:00.631Z,62.40
2018-09-09T07:07:28.805Z,62.70
2018-09-09T07:09:56.978Z,62.70
2018-09-09T07:12:25.139Z,62.40
2018-09-09T07:14:53.326Z,61.90
2018-09-09T07:17:21.499Z,61.60
2018-09-09T07:19:49.658Z,61.40
2018-09-09T07:22:17.829Z,61.40
2018-09-09T07:24:46.011Z,61.40
2018-09-09T07:27:14.155Z,61.50
2018-09-09T07:29:42.607Z,61.10
2018-09-09T07:32:10.804Z,61.90
2018-09-09T07:34:38.956Z,60.80
2018-09-09T07:37:07.139Z,60.70
2018-09-09T07:39:35.282Z,60.60
2018-09-09T07:42:03.454Z,61.00
2018-09-09T07:44:31.604Z,60.00
2018-09-09T07:46:59.774Z,60.00
2018-09-09T07:49:27.948Z,60.00
2018-09-09T07:51:56.125Z,59.90
2018-09-09T07:54:24.300Z,59.80
2018-09-09T07:56:52.511Z,59.80
2018-09-09T07:59:20.643Z,59.80
2018-09-09T08:01:48.788Z,59.80
2018-09-09T08:04:16.957Z,59.80
2018-09-09T08:06:45.122Z,59.60
2018-09-09T08:09:13.271Z,59.60
2018-09-09T08:11:41.422Z,59.50
2018-09-09T08:14:10.558Z,59.60
2018-09-09T08:16:38.778Z,59.60
2018-09-09T08:19:06.913Z,59.80
2018-09-09T08:21:35.331Z,59.70
2018-09-09T08:24:03.551Z,60.40
2018-09-09T08:26:31.710Z,60.00
2018-09-09T08:28:59.851Z,59.60
2018-09-09T08:31:27.982Z,59.20
2018-09-09T08:33:56.137Z,59.10
2018-09-09T08:36:24.287Z,59.30
2018-09-09T08:38:53.191Z,59.50
2018-09-09T08:41:21.334Z,59.10
2018-09-09T08:43:49.579Z,58.90
2018-09-09T08:46:17.711Z,58.70
2018-09-09T08:48:45.862Z,58.60
2018-09-09T08:51:14.018Z,58.90
2018-09-09T08:53:42.171Z,58.80
2018-09-09T08:56:10.351Z,58.60
2018-09-09T08:58:38.487Z,58.40
2018-09-09T09:01:06.634Z,58.20
2018-09-09T09:03:34.798Z,58.00
2018-09-09T09:06:02.947Z,58.10
2018-09-09T09:08:31.123Z,58.40
2018-09-09T09:10:59.266Z,58.50
2018-09-09T09:13:27.427Z,58.30
2018-09-09T09:15:55.584Z,58.00
2018-09-09T09:18:23.743Z,57.70
2018-09-09T09:20:52.029Z,57.20
2018-09-09T09:23:20.175Z,56.70
2018-09-09T09:25:51.637Z,56.40
2018-09-09T09:28:20.785Z,56.20
2018-09-09T09:30:49.081Z,55.90
2018-09-09T09:33:17.201Z,56.00
2018-09-09T09:35:49.213Z,56.00
2018-09-09T09:38:18.366Z,56.00
2018-09-09T09:40:46.725Z,55.80
2018-09-09T09:43:14.872Z,55.60
2018-09-09T09:45:43.144Z,55.60
2018-09-09T09:48:11.402Z,56.10
2018-09-09T09:50:39.578Z,55.20
2018-09-09T09:53:07.861Z,54.90
2018-09-09T09:55:35.998Z,55.50
2018-09-09T09:58:04.106Z,54.80
2018-09-09T10:00:37.706Z,55.30
2018-09-09T10:03:05.894Z,55.20
2018-09-09T10:05:34.862Z,55.00
2018-09-09T10:08:03.199Z,55.00
2018-09-09T10:10:31.531Z,54.70
2018-09-09T10:13:00.025Z,54.70
2018-09-09T10:15:28.175Z,54.60
2018-09-09T10:17:56.318Z,54.70
2018-09-09T10:20:24.527Z,54.90
2018-09-09T10:22:52.714Z,54.30
2018-09-09T10:25:20.875Z,54.30
2018-09-09T10:27:49.880Z,54.40
2018-09-09T10:30:18.054Z,55.40
2018-09-09T10:32:46.223Z,54.70
2018-09-09T10:35:14.358Z,54.70
2018-09-09T10:37:42.555Z,54.30
2018-09-09T10:40:10.805Z,54.30
2018-09-09T10:42:40.486Z,54.40
2018-09-09T10:45:08.866Z,54.30
2018-09-09T10:47:37.219Z,53.90
2018-09-09T10:50:05.554Z,53.30
2018-09-09T10:52:33.762Z,52.90
2018-09-09T10:55:02.082Z,52.20
2018-09-09T10:57:30.358Z,52.40
2018-09-09T10:59:59.373Z,52.30
2018-09-09T11:02:27.534Z,52.20
2018-09-09T11:04:55.722Z,51.60
2018-09-09T11:07:23.890Z,51.50
2018-09-09T11:09:52.115Z,51.40
2018-09-09T11:12:24.571Z,51.10
2018-09-09T11:14:52.738Z,50.90
2018-09-09T11:17:20.897Z,50.20
2018-09-09T11:19:49.054Z,50.60
2018-09-09T11:22:17.218Z,50.30
2018-09-09T11:24:45.441Z,50.30
2018-09-09T11:27:13.630Z,50.20
2018-09-09T11:29:41.906Z,50.20
2018-09-09T11:32:10.238Z,50.20
2018-09-09T11:34:38.466Z,50.00
2018-09-09T11:37:06.642Z,49.70
2018-09-09T11:39:34.830Z,49.60
2018-09-09T11:42:03.012Z,49.30
2018-09-09T11:44:31.202Z,49.50
2018-09-09T11:46:59.385Z,50.00
2018-09-09T11:49:27.576Z,50.00
2018-09-09T11:51:55.762Z,49.90
2018-09-09T11:54:23.939Z,50.30
2018-09-09T11:56:52.178Z,50.30
2018-09-09T11:59:20.440Z,51.20
2018-09-09T12:01:48.766Z,52.50
2018-09-09T12:04:16.938Z,52.70
2018-09-09T12:06:45.360Z,52.00
2018-09-09T12:09:13.554Z,52.70
2018-09-09T12:11:41.806Z,52.00
2018-09-09T12:14:10.043Z,51.60
2018-09-09T12:16:38.314Z,51.40
2018-09-09T12:19:06.666Z,51.20
2018-09-09T12:21:34.838Z,50.50
2018-09-09T12:24:03.284Z,50.50
2018-09-09T12:26:31.422Z,50.30
2018-09-09T12:28:59.627Z,50.30
2018-09-09T12:31:27.854Z,50.60
2018-09-09T12:33:56.154Z,51.00
2018-09-09T12:36:24.310Z,51.40
2018-09-09T12:38:52.461Z,51.00
2018-09-09T12:41:20.629Z,50.90
2018-09-09T12:44:55.699Z,50.90
2018-09-09T12:47:29.346Z,50.80
2018-09-09T12:49:57.503Z,50.50
2018-09-09T12:52:25.646Z,50.10
2018-09-09T12:54:53.806Z,50.10
2018-09-09T12:57:21.984Z,50.10
2018-09-09T12:59:50.159Z,50.40
2018-09-09T13:02:18.358Z,50.10
2018-09-09T13:04:46.523Z,50.00
2018-09-09T13:07:14.708Z,49.90
2018-09-09T13:09:42.862Z,49.80
2018-09-09T13:12:11.015Z,49.80
2018-09-09T13:14:39.159Z,49.10
2018-09-09T13:17:07.303Z,48.70
2018-09-09T13:19:35.434Z,48.40
2018-09-09T13:22:03.601Z,48.60
2018-09-09T13:24:31.866Z,48.40
2018-09-09T13:27:00.042Z,48.30
2018-09-09T13:29:28.179Z,48.20
2018-09-09T13:31:56.322Z,48.20
2018-09-09T13:34:24.503Z,48.10
2018-09-09T13:36:52.661Z,48.10
2018-09-09T13:39:20.790Z,48.50
2018-09-09T13:41:48.938Z,48.60
2018-09-09T13:44:17.079Z,48.60
2018-09-09T13:46:45.235Z,48.90
2018-09-09T13:49:13.382Z,48.60
2018-09-09T13:51:41.594Z,48.50
2018-09-09T13:54:09.739Z,48.30
2018-09-09T13:56:37.906Z,48.40
2018-09-09T13:59:06.050Z,48.40
2018-09-09T14:01:34.219Z,48.50
2018-09-09T14:04:03.082Z,48.50
2018-09-09T14:06:31.334Z,48.50
2018-09-09T14:08:59.487Z,48.40
2018-09-09T14:11:27.663Z,48.50
2018-09-09T14:13:55.818Z,48.70
2018-09-09T14:16:24.035Z,48.70
2018-09-09T14:18:52.431Z,48.70
2018-09-09T14:21:20.626Z,48.70
2018-09-09T14:23:48.782Z,48.70
2018-09-09T14:26:16.962Z,48.90
2018-09-09T14:28:45.116Z,49.00
2018-09-09T14:31:13.265Z,48.60
2018-09-09T14:33:41.471Z,48.40
2018-09-09T14:36:09.671Z,48.30
2018-09-09T14:38:37.824Z,48.20
2018-09-09T14:41:05.980Z,48.50
2018-09-09T14:43:34.138Z,48.80
2018-09-09T14:46:02.674Z,48.70
2018-09-09T14:48:30.840Z,48.40
2018-09-09T14:50:59.035Z,48.20
2018-09-09T14:53:27.221Z,48.30
2018-09-09T14:55:55.354Z,48.20
2018-09-09T14:58:23.610Z,48.30
2018-09-09T15:00:52.010Z,48.60
2018-09-09T15:03:20.171Z,49.00
2018-09-09T15:05:48.303Z,49.00
2018-09-09T15:08:16.446Z,48.70
2018-09-09T15:10:44.588Z,48.70
2018-09-09T15:13:12.758Z,48.70
2018-09-09T15:15:40.911Z,48.50
2018-09-09T15:18:09.070Z,48.50
2018-09-09T15:20:37.227Z,48.40
2018-09-09T15:23:05.421Z,48.40
2018-09-09T15:25:33.558Z,48.30
2018-09-09T15:28:01.790Z,48.20
2018-09-09T15:30:29.955Z,48.30
2018-09-09T15:32:58.098Z,48.30
2018-09-09T15:35:26.252Z,48.40
2018-09-09T15:37:54.390Z,48.10
2018-09-09T15:40:22.739Z,48.20
2018-09-09T15:42:50.878Z,48.10
2018-09-09T15:45:20.981Z,47.90
2018-09-09T15:47:49.274Z,48.00
2018-09-09T15:50:17.414Z,47.90
2018-09-09T15:52:45.550Z,48.10
2018-09-09T15:55:13.683Z,48.10
2018-09-09T15:57:41.859Z,48.30
2018-09-09T16:00:10.018Z,48.40
2018-09-09T16:02:38.246Z,48.40
2018-09-09T16:05:06.884Z,48.40
2018-09-09T16:07:35.039Z,48.30
2018-09-09T16:10:03.257Z,48.40
2018-09-09T16:12:31.498Z,48.40
2018-09-09T16:15:01.914Z,48.70
2018-09-09T16:17:30.188Z,49.20
2018-09-09T16:19:58.350Z,49.60
2018-09-09T16:22:26.538Z,49.70
2018-09-09T16:24:54.926Z,49.70
2018-09-09T16:27:23.270Z,50.40
2018-09-09T16:29:51.556Z,49.40
2018-09-09T16:32:19.829Z,49.20
2018-09-09T16:34:48.024Z,49.00
2018-09-09T16:37:16.236Z,49.00
2018-09-09T16:39:44.796Z,49.00
2018-09-09T16:42:13.997Z,49.20
2018-09-09T16:44:42.231Z,49.30
2018-09-09T16:47:10.402Z,49.40
2018-09-09T16:49:38.595Z,49.50
2018-09-09T16:52:06.966Z,49.50
2018-09-09T16:54:35.123Z,49.60
2018-09-09T16:57:03.266Z,49.80
2018-09-09T16:59:31.483Z,49.70
2018-09-09T17:01:59.618Z,49.60
2018-09-09T17:04:27.767Z,49.60
2018-09-09T17:06:55.908Z,49.60
2018-09-09T17:09:24.076Z,49.60
2018-09-09T17:11:52.218Z,49.60
2018-09-09T17:14:20.374Z,49.50
2018-09-09T17:16:48.538Z,49.50
2018-09-09T17:19:16.710Z,49.50
2018-09-09T17:21:44.864Z,49.60
2018-09-09T17:24:13.030Z,49.90
2018-09-09T17:26:41.187Z,50.80
2018-09-09T17:29:09.395Z,50.10
2018-09-09T17:31:37.575Z,50.30
2018-09-09T17:34:05.718Z,50.20
2018-09-09T17:36:33.890Z,50.10
2018-09-09T17:39:02.155Z,50.10
2018-09-09T17:41:30.364Z,50.10
2018-09-09T17:43:58.538Z,50.10
2018-09-09T17:46:26.694Z,50.10
2018-09-09T17:48:54.846Z,50.20
2018-09-09T17:51:23.790Z,50.20
2018-09-09T17:53:51.970Z,50.30
2018-09-09T17:56:20.134Z,50.30
2018-09-09T17:58:48.278Z,50.50
2018-09-09T18:01:16.419Z,50.90
2018-09-09T18:03:44.606Z,50.90
2018-09-09T18:06:12.791Z,51.00
2018-09-09T18:08:41.095Z,50.90
2018-09-09T18:11:09.287Z,51.00
2018-09-09T18:13:37.456Z,50.90
2018-09-09T18:16:05.637Z,51.00
2018-09-09T18:18:33.836Z,51.10
2018-09-09T18:21:02.103Z,51.20
2018-09-09T18:23:30.301Z,51.30
2018-09-09T18:25:58.445Z,52.10
2018-09-09T18:28:26.589Z,51.40
2018-09-09T18:30:54.848Z,51.60
2018-09-09T18:33:23.072Z,51.60
2018-09-09T18:35:51.273Z,51.70
2018-09-09T18:38:19.411Z,51.80
2018-09-09T18:40:47.756Z,51.90
2018-09-09T18:43:15.939Z,52.00
2018-09-09T18:45:44.435Z,52.00
2018-09-09T18:48:12.643Z,52.10
2018-09-09T18:50:41.424Z,52.40
2018-09-09T18:53:09.966Z,52.30
2018-09-09T18:55:38.094Z,52.30
2018-09-09T18:58:06.315Z,52.40
2018-09-09T19:00:34.459Z,52.60
2018-09-09T19:03:02.835Z,52.70
2018-09-09T19:05:31.138Z,52.80
2018-09-09T19:07:59.296Z,52.80
2018-09-09T19:10:27.483Z,52.90
2018-09-09T19:12:55.669Z,53.00
2018-09-09T19:15:23.839Z,53.20
2018-09-09T19:17:52.014Z,53.30
2018-09-09T19:20:20.195Z,53.50
2018-09-09T19:22:48.356Z,53.70
2018-09-09T19:25:16.502Z,53.80
2018-09-09T19:27:44.655Z,53.90
2018-09-09T19:30:12.810Z,54.10
2018-09-09T19:32:40.971Z,54.20
2018-09-09T19:35:08.824Z,54.20
2018-09-09T19:37:36.995Z,54.30
2018-09-09T19:40:05.542Z,54.30
2018-09-09T19:42:34.010Z,54.50
2018-09-09T19:45:02.955Z,54.60
2018-09-09T19:47:31.160Z,54.70
2018-09-09T19:49:59.327Z,54.80
2018-09-09T19:52:27.491Z,54.90
2018-09-09T19:54:55.666Z,54.90
2018-09-09T19:57:23.814Z,55.00
2018-09-09T19:59:51.982Z,55.20
2018-09-09T20:02:20.130Z,55.40
2018-09-09T20:04:48.318Z,55.50
2018-09-09T20:07:16.425Z,55.60
2018-09-09T20:09:44.594Z,55.60
2018-09-09T20:12:12.795Z,55.60
2018-09-09T20:14:41.026Z,55.70
2018-09-09T20:17:09.163Z,55.80
2018-09-09T20:19:37.315Z,55.70
2018-09-09T20:22:07.857Z,55.80
2018-09-09T20:24:36.011Z,56.00
2018-09-09T20:27:04.146Z,56.00
2018-09-09T20:29:32.322Z,55.90
2018-09-09T20:32:00.461Z,56.10
2018-09-09T20:34:28.615Z,56.20
2018-09-09T20:36:56.777Z,56.20
2018-09-09T20:39:24.918Z,56.30
2018-09-09T20:41:53.180Z,56.90
2018-09-09T20:44:21.298Z,56.30
2018-09-09T20:46:49.661Z,56.40
2018-09-09T20:49:18.154Z,56.40
2018-09-09T20:51:46.358Z,56.50
2018-09-09T20:54:14.581Z,56.70
2018-09-09T20:56:42.998Z,56.80
2018-09-09T20:59:11.361Z,56.80
2018-09-09T21:01:39.659Z,56.90
2018-09-09T21:04:07.985Z,56.90
2018-09-09T21:06:36.139Z,56.80
2018-09-09T21:09:07.111Z,56.70
2018-09-09T21:11:36.188Z,56.70
2018-09-09T21:14:04.359Z,56.60
2018-09-09T21:16:32.770Z,56.50
2018-09-09T21:19:00.927Z,56.60
2018-09-09T21:21:29.100Z,56.60
2018-09-09T21:23:57.770Z,56.50
2018-09-09T21:26:25.934Z,56.50
2018-09-09T21:28:54.304Z,56.50
2018-09-09T21:31:22.727Z,56.30
2018-09-09T21:33:50.919Z,56.20
2018-09-09T21:36:19.067Z,56.10
2018-09-09T21:38:47.453Z,56.10
2018-09-09T21:41:15.602Z,55.90
2018-09-09T21:43:43.786Z,55.80
2018-09-09T21:46:11.978Z,55.80
2018-09-09T21:48:40.134Z,55.80
2018-09-09T21:51:08.306Z,55.80
2018-09-09T21:53:36.693Z,55.90
2018-09-09T21:56:04.856Z,55.90
2018-09-09T21:58:33.017Z,55.80
2018-09-09T22:01:06.658Z,56.60
2018-09-09T22:03:34.837Z,55.90
2018-09-09T22:06:02.986Z,55.80
2018-09-09T22:08:31.159Z,56.50
2018-09-09T22:10:59.318Z,55.80
2018-09-09T22:13:27.477Z,55.90
2018-09-09T22:15:55.630Z,55.80
2018-09-09T22:18:23.801Z,55.80
2018-09-09T22:20:52.032Z,55.70
2018-09-09T22:23:20.198Z,55.80
2018-09-09T22:25:48.360Z,55.80
2018-09-09T22:28:16.538Z,55.90
2018-09-09T22:30:44.687Z,55.80
2018-09-09T22:33:12.823Z,56.10
2018-09-09T22:35:40.970Z,55.90
2018-09-09T22:38:09.114Z,55.90
2018-09-09T22:40:37.316Z,55.90
2018-09-09T22:43:05.654Z,55.90
2018-09-09T22:45:33.819Z,56.00
2018-09-09T22:48:01.989Z,56.00
2018-09-09T22:50:30.145Z,56.00
2018-09-09T22:52:58.325Z,55.90
2018-09-09T22:55:26.517Z,55.90
2018-09-09T22:57:54.667Z,56.00
2018-09-09T23:00:22.881Z,56.00
2018-09-09T23:02:51.174Z,56.10
2018-09-09T23:05:19.364Z,56.10
2018-09-09T23:07:47.464Z,56.10
2018-09-09T23:10:15.639Z,56.00
2018-09-09T23:12:43.768Z,56.10
2018-09-09T23:15:11.926Z,56.10
2018-09-09T23:17:40.102Z,56.10
2018-09-09T23:20:08.298Z,56.20
2018-09-09T23:22:36.450Z,56.10
2018-09-09T23:25:04.914Z,56.20
2018-09-09T23:27:33.081Z,56.30
2018-09-09T23:30:01.243Z,56.30
2018-09-09T23:32:29.408Z,56.20
2018-09-09T23:34:58.355Z,56.20
2018-09-09T23:37:26.519Z,56.20
2018-09-09T23:39:54.686Z,56.10
2018-09-09T23:42:22.842Z,56.20
2018-09-09T23:44:52.170Z,56.30
2018-09-09T23:47:20.334Z,56.30
2018-09-09T23:49:48.486Z,56.50
2018-09-09T23:52:16.642Z,56.40
2018-09-09T23:54:44.963Z,57.10
2018-09-09T23:57:13.155Z,56.50
2018-09-09T23:59:41.301Z,56.40
